Temp: 20.2°C   Baro: 1014.9mb
  Wind: 2.9mph   Dir: SSE (153°)
  Rain: 0.0mm (0.0mm/hr)
  Solar: 905W/m2  Hum: 68%
 
Bath Spa Weather Station Historical Data
Daily Summary for June 5, 2019 Units:  Metric    English   Both
Daily Weekly Monthly Yearly Custom
  High: Low: Average:
Temperature: 21.7 °C 15.4 °C 18.1 °C
Dew Point: 15.1 °C 11.8 °C 13.7 °C
Humidity: 91% 59.7% 76%
Wind Speed: 18.5km/h 0km/h 8.2km/h
Wind Gust: 35.4km/h - -
Wind- - WSW
Pressure: 1010.7 hPa 1008 hPa -
Precipitation: 1.27 mm    
Historical Graphs
 
 
Tabular Data for June 5, 2019
Time Temperature Dew Point Pressure Wind Wind Speed Wind Gust Humidity Rainfall Rate (Hourly) solar
00:04 16 °C 13.5 °C 1010.7 hPa SSW 4.8 km/h 11.3 km/h 85% 0 mm 0 W/m2
00:09 16 °C 13.5 °C 1010.7 hPa SW 4.8 km/h 11.3 km/h 85% 0 mm 0 W/m2
00:14 16 °C 13.5 °C 1010.7 hPa SW 3.4 km/h 11.3 km/h 85% 0 mm 0 W/m2
00:19 16.1 °C 13.6 °C 1010.7 hPa SSW 5.1 km/h 11.3 km/h 85% 0 mm 0 W/m2
00:24 16.1 °C 13.7 °C 1010.7 hPa WSW 4.5 km/h 9.7 km/h 85.4% 0 mm 0 W/m2
00:29 16.1 °C 13.8 °C 1010.7 hPa SW 2.4 km/h 9.7 km/h 86% 0 mm 0 W/m2
00:34 16.2 °C 13.9 °C 1010.4 hPa SSW 4 km/h 9.7 km/h 86% 0 mm 0 W/m2
00:39 16.2 °C 13.9 °C 1010.4 hPa South 2.4 km/h 8 km/h 86% 0 mm 0 W/m2
00:44 16.2 °C 13.9 °C 1010.4 hPa South 6.9 km/h 11.3 km/h 86% 0 mm 0 W/m2
00:49 16.2 °C 13.8 °C 1010.4 hPa South 4.7 km/h 11.3 km/h 86% 0 mm 0 W/m2
00:54 16.1 °C 13.8 °C 1010.4 hPa South 0.6 km/h 4.8 km/h 86% 0 mm 0 W/m2
00:59 16.2 °C 13.8 °C 1010.4 hPa South 3.4 km/h 11.3 km/h 86% 0 mm 0 W/m2
01:04 16.2 °C 13.9 °C 1010.4 hPa SSW 1.1 km/h 11.3 km/h 86% 0 mm 0 W/m2
01:09 16.2 °C 13.9 °C 1010 hPa SSW 2.4 km/h 9.7 km/h 86% 0 mm 0 W/m2
01:14 16.3 °C 14 °C 1010 hPa Calm   6.4 km/h 86% 0 mm 0 W/m2
01:19 16.3 °C 14 °C 1010 hPa SSW 1.3 km/h 8 km/h 86% 0 mm 0 W/m2
01:24 16.3 °C 14 °C 1010 hPa SSW 1 km/h 8 km/h 86% 0 mm 0 W/m2
01:29 16.3 °C 14 °C 1010 hPa SSW 0.3 km/h 4.8 km/h 86% 0 mm 0 W/m2
01:34 16.3 °C 14 °C 1010 hPa SSW 2.6 km/h 8 km/h 86% 0 mm 0 W/m2
01:39 16.3 °C 14 °C 1010 hPa SSW 0.3 km/h 8 km/h 86% 0 mm 0 W/m2
01:44 16.3 °C 14.1 °C 1010 hPa SSW 4.3 km/h 14.5 km/h 86% 0 mm 0 W/m2
01:49 16.4 °C 14.1 °C 1009.7 hPa SW 3.2 km/h 14.5 km/h 86% 0 mm 0 W/m2
01:54 16.4 °C 14.1 °C 1009.7 hPa SW 3.5 km/h 8 km/h 86% 0 mm 0 W/m2
01:59 16.4 °C 14.1 °C 1009.7 hPa SW 3.9 km/h 9.7 km/h 86% 0 mm 0 W/m2
02:04 16.5 °C 14.1 °C 1009.7 hPa SSW 4.8 km/h 11.3 km/h 86% 0 mm 0 W/m2
02:09 16.5 °C 14.1 °C 1010 hPa SW 3.2 km/h 11.3 km/h 86% 0 mm 0 W/m2
02:14 16.5 °C 14.1 °C 1010 hPa SSW 4.7 km/h 11.3 km/h 86% 0 mm 0 W/m2
02:19 16.5 °C 14.1 °C 1009.7 hPa SSW 1.8 km/h 11.3 km/h 86% 0 mm 0 W/m2
02:24 16.5 °C 14.3 °C 1009.7 hPa SSW 2.7 km/h 9.7 km/h 86.8% 0 mm 0 W/m2
02:29 16.5 °C 14.3 °C 1009.7 hPa SSW 3.9 km/h 11.3 km/h 87% 0 mm 0 W/m2
02:34 16.4 °C 14.2 °C 1009.7 hPa SSW 3.5 km/h 11.3 km/h 87% 0 mm 0 W/m2
02:39 16.4 °C 14.2 °C 1009.4 hPa SW 4.2 km/h 9.7 km/h 87.1% 0 mm 0 W/m2
02:44 16.4 °C 14.4 °C 1009.4 hPa SSW 3.4 km/h 11.3 km/h 88% 0 mm 0 W/m2
02:49 16.4 °C 14.4 °C 1009.4 hPa SSW 4 km/h 9.7 km/h 88% 0 mm 0 W/m2
02:54 16.4 °C 14.4 °C 1009.4 hPa SSW 5.3 km/h 12.9 km/h 88% 0 mm 0 W/m2
02:59 16.4 °C 14.4 °C 1009 hPa SW 6.3 km/h 17.7 km/h 88% 0 mm 0 W/m2
03:04 16.4 °C 14.4 °C 1009 hPa SW 4.7 km/h 17.7 km/h 88% 0 mm 0 W/m2
03:09 16.4 °C 14.3 °C 1009 hPa SW 8.5 km/h 20.9 km/h 87.7% 0 mm 0 W/m2
03:14 16.4 °C 14.2 °C 1009 hPa SW 7.2 km/h 17.7 km/h 87% 0 mm 0 W/m2
03:19 16.4 °C 14.3 °C 1009 hPa SSW 3.9 km/h 16.1 km/h 87% 0 mm 0 W/m2
03:24 16.5 °C 14.3 °C 1009 hPa SW 8.2 km/h 14.5 km/h 87% 0 mm 0 W/m2
03:29 16.5 °C 14.3 °C 1008.7 hPa SSW 7.7 km/h 16.1 km/h 87% 0 mm 0 W/m2
03:34 16.5 °C 14.3 °C 1008.7 hPa SSW 9 km/h 19.3 km/h 87% 0 mm 0 W/m2
03:39 16.5 °C 14.2 °C 1008.7 hPa SW 7.7 km/h 17.7 km/h 86.6% 0 mm 0 W/m2
03:44 16.5 °C 14.2 °C 1008.7 hPa SSW 9.3 km/h 19.3 km/h 86.1% 0 mm 0 W/m2
03:49 16.5 °C 14.2 °C 1008.7 hPa SW 8.2 km/h 19.3 km/h 86.4% 0 mm 0 W/m2
03:54 16.5 °C 14.3 °C 1008.7 hPa SSW 4.5 km/h 12.9 km/h 87% 0 mm 0 W/m2
03:59 16.5 °C 14.3 °C 1008.4 hPa SSW 7.4 km/h 16.1 km/h 87% 0 mm 0 W/m2
04:04 16.5 °C 14.3 °C 1008.4 hPa South 3.4 km/h 11.3 km/h 87% 0 mm 0 W/m2
04:09 16.5 °C 14.3 °C 1008.4 hPa SSW 6.9 km/h 16.1 km/h 87% 0.25 mm 0 W/m2
04:14 16.5 °C 14.3 °C 1008.4 hPa SSW 5.8 km/h 12.9 km/h 87% 0.25 mm 0 W/m2
04:19 16.5 °C 14.3 °C 1008.4 hPa SSW 7.1 km/h 14.5 km/h 87.3% 0.25 mm 0 W/m2
04:24 16.5 °C 14.5 °C 1008.4 hPa SW 9.8 km/h 19.3 km/h 88% 0.25 mm 0 W/m2
04:29 16.5 °C 14.5 °C 1008.4 hPa SSW 9.7 km/h 22.5 km/h 88% 0.25 mm 0 W/m2
04:34 16.5 °C 14.5 °C 1008.4 hPa SSW 9 km/h 22.5 km/h 88% 0.25 mm 0 W/m2
04:39 16.5 °C 14.5 °C 1008.4 hPa SSW 7.4 km/h 20.9 km/h 88% 0.25 mm 0 W/m2
04:44 16.5 °C 14.5 °C 1008.4 hPa SW 8.4 km/h 20.9 km/h 88% 0.25 mm 0 W/m2
04:49 16.5 °C 14.5 °C 1008.4 hPa SW 10.3 km/h 19.3 km/h 88% 0.25 mm 0 W/m2
04:54 16.5 °C 14.6 °C 1008.4 hPa SW 9 km/h 14.5 km/h 88.6% 0.25 mm 0 W/m2
04:59 16.5 °C 14.7 °C 1008.4 hPa SW 9.3 km/h 19.3 km/h 89% 0.25 mm 0 W/m2
05:04 16.6 °C 14.8 °C 1008.4 hPa SW 6.6 km/h 14.5 km/h 89% 0.25 mm 0 W/m2
05:09 16.5 °C 14.7 °C 1008.4 hPa SW 9.2 km/h 17.7 km/h 89% 0.25 mm 0 W/m2
05:14 16.5 °C 14.7 °C 1008.4 hPa SW 10.8 km/h 19.3 km/h 89% 0 mm 0 W/m2
05:19 16.5 °C 14.7 °C 1008 hPa SW 8 km/h 19.3 km/h 89% 0 mm 0 W/m2
05:24 16.5 °C 14.7 °C 1008 hPa SW 10.1 km/h 17.7 km/h 89% 0 mm 0 W/m2
05:29 16.5 °C 14.8 °C 1008 hPa SW 6.8 km/h 17.7 km/h 89.5% 0 mm 0 W/m2
05:34 16.5 °C 14.9 °C 1008 hPa SSW 8.7 km/h 17.7 km/h 90% 0 mm 0 W/m2
05:39 16.5 °C 14.9 °C 1008 hPa SW 8.9 km/h 16.1 km/h 90% 0 mm 0 W/m2
05:44 16.6 °C 14.9 °C 1008.4 hPa SW 6.1 km/h 14.5 km/h 90% 0 mm 0 W/m2
05:49 16.6 °C 15 °C 1008.4 hPa SSW 6.8 km/h 17.7 km/h 90% 0 mm 0 W/m2
05:54 16.7 °C 15.1 °C 1008.4 hPa SW 6.8 km/h 14.5 km/h 90% 0 mm 0 W/m2
05:59 16.7 °C 15.1 °C 1008.4 hPa SW 6.3 km/h 14.5 km/h 90% 0 mm 7 W/m2
06:04 16.7 °C 15.1 °C 1008 hPa SW 8.2 km/h 16.1 km/h 90% 0 mm 7 W/m2
06:09 16.7 °C 15.1 °C 1008.4 hPa SW 8.5 km/h 16.1 km/h 90% 0 mm 7 W/m2
06:14 16.7 °C 15.1 °C 1008.4 hPa SW 6.4 km/h 16.1 km/h 90% 0 mm 9 W/m2
06:19 16.7 °C 15.1 °C 1008.4 hPa SW 7.7 km/h 14.5 km/h 90.4% 0 mm 9 W/m2
06:24 16.6 °C 15.1 °C 1008.4 hPa SW 7.4 km/h 16.1 km/h 91% 0.25 mm 7 W/m2
06:29 16.5 °C 15 °C 1008.4 hPa SW 6.3 km/h 16.1 km/h 91% 0.76 mm 7 W/m2
06:34 16.4 °C 14.9 °C 1008.4 hPa WSW 12.7 km/h 24.1 km/h 91% 1.02 mm 12 W/m2
06:39 16.2 °C 14.7 °C 1008.4 hPa West 10 km/h 22.5 km/h 91% 1.02 mm 23 W/m2
06:44 15.9 °C 14.4 °C 1008.7 hPa West 8.2 km/h 16.1 km/h 91% 1.02 mm 30 W/m2
06:49 15.8 °C 14.3 °C 1008.7 hPa West 9.7 km/h 17.7 km/h 91% 1.02 mm 35 W/m2
06:54 15.7 °C 14.2 °C 1008.7 hPa West 7.1 km/h 17.7 km/h 91% 1.02 mm 44 W/m2
06:59 15.6 °C 14.1 °C 1008.7 hPa WNW 8.4 km/h 16.1 km/h 91% 1.02 mm 72 W/m2
07:04 15.5 °C 14 °C 1008.7 hPa WNW 5.6 km/h 16.1 km/h 91% 1.02 mm 72 W/m2
07:09 15.5 °C 14 °C 1008.7 hPa WNW 5.5 km/h 12.9 km/h 91% 1.02 mm 56 W/m2
07:14 15.5 °C 14 °C 1009 hPa WNW 7.4 km/h 14.5 km/h 91% 1.02 mm 54 W/m2
07:19 15.4 °C 13.9 °C 1008.7 hPa WNW 8.9 km/h 16.1 km/h 90.6% 1.02 mm 54 W/m2
07:24 15.4 °C 13.8 °C 1009 hPa WNW 9.5 km/h 14.5 km/h 90.2% 0.76 mm 54 W/m2
07:29 15.4 °C 13.8 °C 1009 hPa WNW 6.4 km/h 14.5 km/h 90% 0.76 mm 62 W/m2
07:34 15.4 °C 13.8 °C 1009 hPa West 6.1 km/h 11.3 km/h 90% 0.51 mm 100 W/m2
07:39 15.4 °C 13.8 °C 1009 hPa West 7.1 km/h 12.9 km/h 90% 0.25 mm 134 W/m2
07:44 15.5 °C 13.9 °C 1009 hPa WNW 5.3 km/h 12.9 km/h 90% 0.25 mm 142 W/m2
07:49 15.6 °C 13.9 °C 1009 hPa West 5.3 km/h 11.3 km/h 90% 0.25 mm 146 W/m2
07:54 15.6 °C 13.9 °C 1009 hPa West 7.4 km/h 14.5 km/h 90% 0.25 mm 93 W/m2
07:59 15.7 °C 14.1 °C 1009 hPa WNW 2.3 km/h 8 km/h 90% 0 mm 225 W/m2
08:04 15.8 °C 14.2 °C 1009 hPa West 7.9 km/h 16.1 km/h 89.7% 0 mm 227 W/m2
08:09 15.9 °C 14.2 °C 1009 hPa West 7.9 km/h 16.1 km/h 89% 0 mm 232 W/m2
08:14 16.2 °C 14.3 °C 1009 hPa WNW 5.8 km/h 14.5 km/h 88.9% 0 mm 281 W/m2
08:19 16.2 °C 14.2 °C 1009 hPa NW 8.4 km/h 16.1 km/h 87.8% 0 mm 329 W/m2
08:24 16.3 °C 14.1 °C 1009 hPa WNW 7.2 km/h 16.1 km/h 86.6% 0 mm 329 W/m2
08:29 16.5 °C 14.1 °C 1009 hPa WNW 7.2 km/h 14.5 km/h 85.6% 0 mm 325 W/m2
08:34 16.6 °C 14 °C 1009 hPa WNW 6.1 km/h 12.9 km/h 84.7% 0 mm 315 W/m2
08:39 16.8 °C 14.1 °C 1009 hPa West 6.8 km/h 12.9 km/h 84.2% 0 mm 339 W/m2
08:44 16.8 °C 13.8 °C 1009 hPa West 8.5 km/h 16.1 km/h 82.4% 0 mm 373 W/m2
08:49 17.1 °C 13.7 °C 1009 hPa WNW 5.8 km/h 14.5 km/h 80.9% 0 mm 540 W/m2
08:54 17.3 °C 13.9 °C 1009 hPa WNW 5 km/h 16.1 km/h 80.3% 0 mm 540 W/m2
08:59 17.3 °C 13.6 °C 1009 hPa WNW 11.4 km/h 17.7 km/h 79.4% 0 mm 206 W/m2
09:04 17.2 °C 13.4 °C 1009 hPa WNW 7.4 km/h 14.5 km/h 79% 0 mm 223 W/m2
09:09 17.1 °C 13.2 °C 1009 hPa WNW 7.1 km/h 14.5 km/h 78.1% 0 mm 221 W/m2
09:14 17.2 °C 13.1 °C 1009 hPa WNW 7.4 km/h 17.7 km/h 77% 0 mm 527 W/m2
09:19 17.2 °C 12.9 °C 1009 hPa WNW 10.9 km/h 20.9 km/h 76.1% 0 mm 355 W/m2
09:24 17.2 °C 12.9 °C 1009 hPa NW 8.9 km/h 20.9 km/h 76.1% 0 mm 478 W/m2
09:29 17.3 °C 13.1 °C 1009 hPa West 10.3 km/h 19.3 km/h 76.6% 0 mm 471 W/m2
09:34 17.3 °C 12.9 °C 1009 hPa WNW 10.6 km/h 19.3 km/h 75.8% 0 mm 492 W/m2
09:39 17.4 °C 13.2 °C 1009 hPa WNW 7.1 km/h 17.7 km/h 76% 0 mm 589 W/m2
09:44 17.9 °C 13.6 °C 1009 hPa West 10.1 km/h 17.7 km/h 75.7% 0 mm 682 W/m2
09:49 18.3 °C 13.7 °C 1009 hPa West 8.7 km/h 19.3 km/h 74.6% 0 mm 682 W/m2
09:54 18.3 °C 13.5 °C 1009 hPa West 8 km/h 14.5 km/h 73.5% 0 mm 538 W/m2
09:59 18.1 °C 13.4 °C 1009 hPa West 11.7 km/h 17.7 km/h 74.5% 0 mm 547 W/m2
10:04 18.2 °C 13.5 °C 1009 hPa WSW 9.8 km/h 17.7 km/h 74.2% 0 mm 585 W/m2
10:09 18.3 °C 13.5 °C 1009 hPa West 11.4 km/h 19.3 km/h 73.5% 0 mm 715 W/m2
10:14 18.8 °C 13.9 °C 1009 hPa WSW 10.3 km/h 27.4 km/h 73.1% 0 mm 780 W/m2
10:19 18.8 °C 13.2 °C 1009 hPa West 13.2 km/h 27.4 km/h 70% 0 mm 780 W/m2
10:24 18.6 °C 13.3 °C 1009.4 hPa West 12.2 km/h 25.7 km/h 71.3% 0 mm 322 W/m2
10:29 18.5 °C 13.2 °C 1009.4 hPa West 13.7 km/h 25.7 km/h 71.3% 0 mm 563 W/m2
10:34 18.7 °C 13.2 °C 1009.4 hPa West 13.2 km/h 25.7 km/h 70.6% 0 mm 701 W/m2
10:39 18.8 °C 13.3 °C 1009.4 hPa WSW 8 km/h 19.3 km/h 70.2% 0 mm 701 W/m2
10:44 19 °C 13.2 °C 1009.4 hPa WSW 15.9 km/h 29 km/h 69% 0 mm 722 W/m2
10:49 19.2 °C 12.9 °C 1009 hPa West 13 km/h 29 km/h 67.1% 0 mm 745 W/m2
10:54 19.4 °C 13.1 °C 1009 hPa WSW 13.4 km/h 24.1 km/h 66.9% 0 mm 875 W/m2
10:59 19.4 °C 13.1 °C 1009 hPa WNW 11.3 km/h 20.9 km/h 66.7% 0 mm 875 W/m2
11:04 19.1 °C 12.6 °C 1009 hPa WNW 13.2 km/h 24.1 km/h 65.8% 0 mm 374 W/m2
11:09 18.8 °C 12.4 °C 1009 hPa WNW 14.6 km/h 24.1 km/h 66.8% 0 mm 374 W/m2
11:14 18.7 °C 12.6 °C 1009 hPa WNW 13 km/h 24.1 km/h 67.6% 0 mm 364 W/m2
11:19 19.1 °C 12.9 °C 1009 hPa WSW 11.9 km/h 24.1 km/h 67.6% 0 mm 466 W/m2
11:24 19.2 °C 12.8 °C 1009 hPa WSW 14.6 km/h 24.1 km/h 66.3% 0 mm 951 W/m2
11:29 19.6 °C 12.8 °C 1009 hPa WSW 12.6 km/h 24.1 km/h 65.4% 0 mm 882 W/m2
11:34 19.6 °C 12.7 °C 1009 hPa WNW 11.6 km/h 20.9 km/h 64.3% 0 mm 817 W/m2
11:39 19.4 °C 12.7 °C 1009 hPa West 11.9 km/h 20.9 km/h 64.9% 0 mm 573 W/m2
11:44 19.7 °C 12.6 °C 1009 hPa West 8 km/h 17.7 km/h 63.6% 0 mm 861 W/m2
11:49 20.2 °C 13 °C 1009 hPa WSW 12.4 km/h 22.5 km/h 63.5% 0 mm 861 W/m2
11:54 19.6 °C 12.8 °C 1009 hPa WSW 15.1 km/h 25.7 km/h 64.6% 0 mm 396 W/m2
11:59 19.3 °C 13 °C 1009 hPa West 11.1 km/h 25.7 km/h 66.7% 0 mm 545 W/m2
12:04 19.6 °C 13.2 °C 1009 hPa WSW 10.1 km/h 20.9 km/h 66.5% 0 mm 933 W/m2
12:09 19.8 °C 13.4 °C 1009 hPa West 9 km/h 20.9 km/h 66.7% 0 mm 933 W/m2
12:14 20.2 °C 13.3 °C 1009 hPa WSW 13.2 km/h 35.4 km/h 65% 0 mm 828 W/m2
12:19 20.4 °C 12.6 °C 1009 hPa West 10.5 km/h 35.4 km/h 61% 0 mm 782 W/m2
12:24 20.5 °C 12.4 °C 1009 hPa WSW 11.9 km/h 25.7 km/h 59.8% 0 mm 779 W/m2
12:29 20.6 °C 12.6 °C 1009 hPa West 13.5 km/h 27.4 km/h 60% 0 mm 872 W/m2
12:34 20.6 °C 13 °C 1009 hPa WNW 10.8 km/h 24.1 km/h 61.6% 0 mm 879 W/m2
12:39 20.4 °C 13.2 °C 1009 hPa WNW 11.3 km/h 24.1 km/h 63.1% 0 mm 1104 W/m2
12:44 20.3 °C 13.4 °C 1009 hPa West 11.7 km/h 24.1 km/h 64.5% 0 mm 1104 W/m2
12:49 20.3 °C 13.6 °C 1009 hPa WNW 14.5 km/h 25.7 km/h 65.2% 0 mm 1002 W/m2
12:54 20.2 °C 13.7 °C 1009 hPa WNW 13.4 km/h 24.1 km/h 66.6% 0 mm 1002 W/m2
12:59 20.3 °C 13.9 °C 1009 hPa West 14.5 km/h 24.1 km/h 66.5% 0 mm 898 W/m2
13:04 20.4 °C 14.1 °C 1009 hPa WNW 12.1 km/h 17.7 km/h 66.9% 0 mm 904 W/m2
13:09 20.4 °C 13.9 °C 1009 hPa WSW 14.3 km/h 22.5 km/h 66.7% 0 mm 863 W/m2
13:14 20.5 °C 14.1 °C 1009 hPa WSW 11.1 km/h 19.3 km/h 66.5% 0 mm 909 W/m2
13:19 20.7 °C 14.2 °C 1009 hPa West 13 km/h 20.9 km/h 66.4% 0 mm 916 W/m2
13:24 20.9 °C 14.1 °C 1009 hPa West 14.3 km/h 24.1 km/h 65% 0 mm 904 W/m2
13:29 20.9 °C 13.8 °C 1009 hPa WNW 15.8 km/h 27.4 km/h 64% 0 mm 879 W/m2
13:34 21 °C 13.8 °C 1009 hPa WNW 12.2 km/h 27.4 km/h 63.4% 0 mm 875 W/m2
13:39 21.1 °C 13.2 °C 1009 hPa West 14.6 km/h 27.4 km/h 60.8% 0 mm 879 W/m2
13:44 21.2 °C 13.1 °C 1009 hPa West 14.2 km/h 29 km/h 59.7% 0 mm 942 W/m2
13:49 21 °C 13.1 °C 1009 hPa WNW 12.9 km/h 25.7 km/h 60.3% 0 mm 512 W/m2
13:54 20.5 °C 13.1 °C 1009 hPa West 15.6 km/h 29 km/h 62.6% 0 mm 413 W/m2
13:59 20.4 °C 13.6 °C 1009 hPa West 9 km/h 27.4 km/h 64.5% 0 mm 417 W/m2
14:04 20.6 °C 13.5 °C 1009 hPa West 10.8 km/h 22.5 km/h 63.8% 0 mm 362 W/m2
14:09 20.5 °C 13.6 °C 1009 hPa WNW 13 km/h 24.1 km/h 64.3% 0 mm 380 W/m2
14:14 20.3 °C 13.4 °C 1009 hPa West 14 km/h 25.7 km/h 64.4% 0 mm 582 W/m2
14:19 20.6 °C 13.8 °C 1009 hPa West 9.8 km/h 19.3 km/h 65% 0 mm 582 W/m2
14:24 20.6 °C 13.8 °C 1009 hPa West 15.9 km/h 27.4 km/h 65.3% 0 mm 410 W/m2
14:29 20.3 °C 13.8 °C 1009 hPa WSW 13.4 km/h 24.1 km/h 66.2% 0 mm 448 W/m2
14:34 20.4 °C 14.1 °C 1009 hPa WSW 11.3 km/h 25.7 km/h 66.7% 0 mm 520 W/m2
14:39 21.1 °C 14.5 °C 1009 hPa WSW 5.6 km/h 17.7 km/h 66.2% 0 mm 520 W/m2
14:44 21.1 °C 14.3 °C 1009 hPa WNW 12.7 km/h 20.9 km/h 65.3% 0 mm 914 W/m2
14:49 21.1 °C 14.3 °C 1009 hPa West 11.4 km/h 24.1 km/h 65.3% 0 mm 872 W/m2
14:54 21.5 °C 14.3 °C 1009 hPa WSW 11.9 km/h 20.9 km/h 63.6% 0 mm 895 W/m2
14:59 21.4 °C 14.3 °C 1009 hPa WNW 12.2 km/h 20.9 km/h 63.8% 0 mm 895 W/m2
15:04 21.5 °C 14.6 °C 1009 hPa West 10.9 km/h 19.3 km/h 64.9% 0 mm 914 W/m2
15:09 21.7 °C 14.4 °C 1009 hPa WNW 12.2 km/h 20.9 km/h 63.3% 0 mm 914 W/m2
15:14 21.4 °C 13.8 °C 1009 hPa WNW 18 km/h 27.4 km/h 61.9% 0 mm 942 W/m2
15:19 21.1 °C 13.5 °C 1009 hPa West 13.2 km/h 22.5 km/h 62.1% 0 mm 782 W/m2
15:24 21.4 °C 13.8 °C 1009 hPa WNW 11.7 km/h 20.9 km/h 62.2% 0 mm 868 W/m2
15:29 21.4 °C 13.7 °C 1009 hPa WNW 11.6 km/h 20.9 km/h 61% 0 mm 793 W/m2
15:34 21.6 °C 13.7 °C 1009 hPa West 12.2 km/h 20.9 km/h 61% 0 mm 824 W/m2
15:39 21.7 °C 13.8 °C 1009 hPa West 11.4 km/h 27.4 km/h 61% 0 mm 831 W/m2
15:44 21.7 °C 13.8 °C 1009 hPa WSW 9.2 km/h 19.3 km/h 61% 0 mm 735 W/m2
15:49 21.4 °C 13.8 °C 1009 hPa West 7.2 km/h 17.7 km/h 61.4% 0 mm 283 W/m2
15:54 21.3 °C 13.9 °C 1009 hPa West 12.6 km/h 25.7 km/h 62.7% 0 mm 397 W/m2
15:59 21.1 °C 13.7 °C 1009 hPa West 11.1 km/h 25.7 km/h 62.8% 0 mm 408 W/m2
16:04 21.3 °C 13.6 °C 1009 hPa West 15.3 km/h 25.7 km/h 61.3% 0 mm 814 W/m2
16:09 21.7 °C 13.8 °C 1009 hPa WNW 14.5 km/h 22.5 km/h 60.5% 0 mm 726 W/m2
16:14 21.2 °C 13.3 °C 1009 hPa WNW 12.7 km/h 22.5 km/h 60.8% 0 mm 237 W/m2
16:19 20.9 °C 13.7 °C 1009 hPa WNW 13 km/h 24.1 km/h 63% 0 mm 436 W/m2
16:24 20.9 °C 13.6 °C 1009 hPa West 12.4 km/h 24.1 km/h 63% 0 mm 436 W/m2
16:29 20.8 °C 13.7 °C 1009 hPa WNW 16.4 km/h 27.4 km/h 63.9% 0 mm 287 W/m2
16:34 20.7 °C 13.6 °C 1009 hPa West 9.8 km/h 27.4 km/h 64% 0 mm 381 W/m2
16:39 20.8 °C 13.8 °C 1009 hPa WNW 5.6 km/h 16.1 km/h 64% 0 mm 332 W/m2
16:44 20.9 °C 13.9 °C 1009 hPa West 9.2 km/h 17.7 km/h 64.3% 0 mm 274 W/m2
16:49 20.9 °C 13.9 °C 1009 hPa West 9.7 km/h 17.7 km/h 64.3% 0 mm 239 W/m2
16:54 20.7 °C 13.6 °C 1009 hPa West 14 km/h 24.1 km/h 64% 0 mm 202 W/m2
16:59 20.5 °C 13.6 °C 1009 hPa West 13.4 km/h 24.1 km/h 64.4% 0 mm 156 W/m2
17:04 20.4 °C 13.6 °C 1008.7 hPa West 9.3 km/h 20.9 km/h 65.2% 0 mm 153 W/m2
17:09 20.5 °C 13.9 °C 1008.7 hPa West 8.2 km/h 16.1 km/h 66% 0 mm 221 W/m2
17:14 20.7 °C 13.9 °C 1008.7 hPa WSW 8.5 km/h 20.9 km/h 65.5% 0 mm 221 W/m2
17:19 20.5 °C 13.6 °C 1008.7 hPa West 13.5 km/h 25.7 km/h 64.3% 0 mm 181 W/m2
17:24 20.4 °C 13.6 °C 1008.7 hPa WSW 10.6 km/h 19.3 km/h 65% 0 mm 171 W/m2
17:29 20.4 °C 13.6 °C 1008.7 hPa West 10 km/h 22.5 km/h 64.8% 0 mm 195 W/m2
17:34 20.4 °C 13.5 °C 1008.7 hPa West 10.1 km/h 20.9 km/h 64.4% 0 mm 281 W/m2
17:39 20.4 °C 13.4 °C 1008.7 hPa WNW 11.1 km/h 17.7 km/h 64% 0 mm 206 W/m2
17:44 20.3 °C 13.4 °C 1008.7 hPa West 9.2 km/h 17.7 km/h 64.2% 0 mm 142 W/m2
17:49 20.4 °C 13.6 °C 1008.7 hPa WSW 6.9 km/h 14.5 km/h 65% 0 mm 146 W/m2
17:54 20.4 °C 13.8 °C 1009 hPa WSW 8.9 km/h 17.7 km/h 66% 0 mm 130 W/m2
17:59 20.3 °C 13.7 °C 1008.7 hPa West 11.3 km/h 17.7 km/h 65.9% 0 mm 142 W/m2
18:04 20.3 °C 13.7 °C 1008.7 hPa WSW 5.3 km/h 17.7 km/h 65.9% 0 mm 269 W/m2
18:09 20.5 °C 13.7 °C 1008.7 hPa WSW 10.6 km/h 19.3 km/h 65.3% 0 mm 485 W/m2
18:14 20.9 °C 13.6 °C 1008.7 hPa WSW 14.6 km/h 27.4 km/h 63% 0 mm 462 W/m2
18:19 21.1 °C 13.5 °C 1008.7 hPa West 14 km/h 27.4 km/h 62.2% 0 mm 425 W/m2
18:24 20.8 °C 13.3 °C 1008.7 hPa WNW 11.3 km/h 24.1 km/h 62.1% 0 mm 385 W/m2
18:29 20.6 °C 13.3 °C 1008.7 hPa West 13.5 km/h 19.3 km/h 62.8% 0 mm 367 W/m2
18:34 20.7 °C 13.4 °C 1008.7 hPa West 12.4 km/h 20.9 km/h 63.2% 0 mm 367 W/m2
18:39 20.7 °C 13.3 °C 1008.7 hPa WSW 10.8 km/h 20.9 km/h 62.6% 0 mm 364 W/m2
18:44 20.7 °C 13.4 °C 1008.7 hPa West 9.2 km/h 20.9 km/h 63.2% 0 mm 336 W/m2
18:49 20.6 °C 13.5 °C 1008.7 hPa West 9.7 km/h 19.3 km/h 63.8% 0 mm 204 W/m2
18:54 20.5 °C 13.3 °C 1008.7 hPa WSW 10.8 km/h 19.3 km/h 63.5% 0 mm 265 W/m2
18:59 20.4 °C 13.6 °C 1008.7 hPa West 9.2 km/h 19.3 km/h 64.7% 0 mm 272 W/m2
19:04 20.6 °C 13.8 °C 1008.7 hPa WNW 7.7 km/h 12.9 km/h 65% 0 mm 287 W/m2
19:09 20.5 °C 13.7 °C 1008.7 hPa WNW 9.3 km/h 17.7 km/h 65% 0 mm 169 W/m2
19:14 20.3 °C 13.7 °C 1008.7 hPa WNW 10 km/h 19.3 km/h 66.2% 0 mm 132 W/m2
19:19 19.9 °C 13.6 °C 1008.7 hPa WNW 10.3 km/h 19.3 km/h 67% 0 mm 91 W/m2
19:24 19.6 °C 13.5 °C 1008.7 hPa WNW 9.3 km/h 17.7 km/h 68% 0 mm 70 W/m2
19:29 19.4 °C 13.3 °C 1008.7 hPa WNW 9.5 km/h 16.1 km/h 68% 0 mm 60 W/m2
19:34 19.3 °C 13.3 °C 1008.7 hPa West 10.1 km/h 16.1 km/h 68.3% 0 mm 54 W/m2
19:39 19.3 °C 13.4 °C 1008.7 hPa West 8.7 km/h 16.1 km/h 69% 0 mm 44 W/m2
19:44 19.2 °C 13.4 °C 1008.7 hPa West 8.5 km/h 14.5 km/h 69.1% 0 mm 35 W/m2
19:49 19.1 °C 13.4 °C 1008.7 hPa WNW 12.2 km/h 20.9 km/h 70% 0 mm 23 W/m2
19:54 18.9 °C 13.3 °C 1009 hPa West 10.9 km/h 25.7 km/h 70% 0 mm 12 W/m2
19:59 18.6 °C 13.2 °C 1009 hPa WNW 18.5 km/h 29 km/h 71.1% 0 mm 9 W/m2
20:04 17.9 °C 13 °C 1009 hPa WNW 13.7 km/h 24.1 km/h 73% 0 mm 12 W/m2
20:09 17.4 °C 12.8 °C 1009 hPa NW 12.2 km/h 17.7 km/h 74.3% 0 mm 12 W/m2
20:14 17.2 °C 12.9 °C 1009 hPa NW 8.7 km/h 20.9 km/h 76.1% 0 mm 11 W/m2
20:19 17 °C 13.1 °C 1009 hPa NW 5.8 km/h 14.5 km/h 77.8% 0 mm 12 W/m2
20:24 16.9 °C 13.2 °C 1009 hPa WNW 4.8 km/h 12.9 km/h 78.6% 0 mm 11 W/m2
20:29 16.9 °C 13.2 °C 1009 hPa NW 2.9 km/h 9.7 km/h 79.1% 0 mm 7 W/m2
20:34 16.8 °C 13.3 °C 1009 hPa WNW 3.5 km/h 8 km/h 80% 0 mm 5 W/m2
20:39 16.8 °C 13.4 °C 1009 hPa WNW 2.9 km/h 8 km/h 80.7% 0 mm 5 W/m2
20:44 16.7 °C 13.5 °C 1009 hPa WNW 0.5 km/h 4.8 km/h 81.2% 0 mm 0 W/m2
20:49 16.8 °C 13.7 °C 1009 hPa WNW 1.4 km/h 4.8 km/h 82% 0 mm 0 W/m2
20:54 16.8 °C 13.7 °C 1009 hPa WNW 1.3 km/h 6.4 km/h 82% 0 mm 0 W/m2
20:59 16.8 °C 13.7 °C 1009 hPa WNW 2.7 km/h 8 km/h 82% 0 mm 0 W/m2
21:04 16.8 °C 13.7 °C 1009 hPa WNW 2.6 km/h 8 km/h 82% 0 mm 0 W/m2
21:09 16.8 °C 13.7 °C 1009.4 hPa WNW 1 km/h 4.8 km/h 82% 0 mm 0 W/m2
21:14 16.8 °C 13.7 °C 1009.4 hPa WNW 0.8 km/h 4.8 km/h 82% 0 mm 0 W/m2
21:19 16.8 °C 13.7 °C 1009.4 hPa WNW 1 km/h 4.8 km/h 82% 0 mm 0 W/m2
21:24 16.8 °C 13.7 °C 1009.4 hPa WNW 2.4 km/h 8 km/h 81.9% 0 mm 0 W/m2
21:29 16.9 °C 13.6 °C 1009.4 hPa West 3.5 km/h 9.7 km/h 81% 0 mm 0 W/m2
21:34 16.9 °C 13.6 °C 1009.4 hPa West 3.9 km/h 9.7 km/h 80.7% 0 mm 0 W/m2
21:39 17 °C 13.5 °C 1009.4 hPa West 2.7 km/h 9.7 km/h 80% 0 mm 0 W/m2
21:44 17 °C 13.4 °C 1009.4 hPa West 4 km/h 8 km/h 79.5% 0 mm 0 W/m2
21:49 17 °C 13.3 °C 1009.4 hPa West 3.9 km/h 8 km/h 79% 0 mm 0 W/m2
21:54 17 °C 13.3 °C 1009.4 hPa WSW 4.7 km/h 12.9 km/h 79% 0 mm 0 W/m2
21:59 17 °C 13.2 °C 1009.4 hPa West 6.8 km/h 12.9 km/h 78.6% 0 mm 0 W/m2
22:04 17.1 °C 13.2 °C 1009.4 hPa West 4 km/h 9.7 km/h 78% 0 mm 0 W/m2
22:09 17.1 °C 13.2 °C 1009.4 hPa West 3.4 km/h 9.7 km/h 78% 0 mm 0 W/m2
22:14 17 °C 13.1 °C 1009.4 hPa West 3.2 km/h 9.7 km/h 77.6% 0 mm 0 W/m2
22:19 17 °C 12.9 °C 1009.4 hPa West 1.9 km/h 6.4 km/h 77% 0 mm 0 W/m2
22:24 17 °C 12.9 °C 1009.4 hPa West 2.6 km/h 6.4 km/h 77% 0 mm 0 W/m2
22:29 17 °C 12.8 °C 1009.4 hPa West 2.1 km/h 4.8 km/h 76.4% 0 mm 0 W/m2
22:34 17 °C 12.7 °C 1009.4 hPa West 3.2 km/h 8 km/h 76% 0 mm 0 W/m2
22:39 17 °C 12.6 °C 1009.4 hPa West 2.4 km/h 8 km/h 75.4% 0 mm 0 W/m2
22:44 16.9 °C 12.4 °C 1009.4 hPa West 2.9 km/h 8 km/h 75% 0 mm 0 W/m2
22:49 16.9 °C 12.3 °C 1009.4 hPa West 4.7 km/h 11.3 km/h 74.5% 0 mm 0 W/m2
22:54 16.9 °C 12.1 °C 1009.4 hPa WSW 5.6 km/h 11.3 km/h 73.3% 0 mm 0 W/m2
22:59 16.9 °C 11.9 °C 1009.4 hPa WSW 5 km/h 11.3 km/h 72.4% 0 mm 0 W/m2
23:04 17.1 °C 11.8 °C 1009.4 hPa SW 3.1 km/h 11.3 km/h 71.2% 0 mm 0 W/m2
23:09 17.1 °C 11.9 °C 1009.4 hPa SW 2.3 km/h 6.4 km/h 72% 0 mm 0 W/m2
23:14 17 °C 12.1 °C 1009.4 hPa SW 1.6 km/h 6.4 km/h 72.9% 0 mm 0 W/m2
23:19 17 °C 12.1 °C 1009.4 hPa SW 1.8 km/h 8 km/h 73% 0 mm 0 W/m2
23:24 16.9 °C 12.1 °C 1009.4 hPa SW 1.1 km/h 6.4 km/h 73.5% 0 mm 0 W/m2
23:29 16.9 °C 12.1 °C 1009.4 hPa SW 0.6 km/h 6.4 km/h 73.5% 0 mm 0 W/m2
23:34 16.9 °C 12.2 °C 1009.4 hPa SW 3.2 km/h 8 km/h 74% 0 mm 0 W/m2
23:39 16.8 °C 12.4 °C 1009 hPa SW 5.1 km/h 9.7 km/h 75.1% 0 mm 0 W/m2
23:44 16.7 °C 12.6 °C 1009 hPa SW 2.1 km/h 9.7 km/h 76.6% 0 mm 0 W/m2
23:49 16.7 °C 12.7 °C 1009.4 hPa SW 3.4 km/h 8 km/h 78% 0 mm 0 W/m2
23:54 16.5 °C 12.8 °C 1009.4 hPa SW 2.7 km/h 8 km/h 79.1% 0 mm 0 W/m2
23:59 16.5 °C 13 °C 1009 hPa SW 3.1 km/h 11.3 km/h 80% 0 mm 0 W/m2
Bath Spa Weather
Compliments of Weather Underground - 2 mb